Kiliya — UZDN — position and weather

sailwx.info

Track history (hours):
 
Tides and Currents Weather Stations Pressure Air Temp Water Temp Dewpoint Dewpoint Depression Visibility Wind Speed Wind Dir Waves Ship Positions

Kiliya

Last reported at 2017-Dec-08 23:51 UTC. Time now 2017-Dec-12 13:57 UTC.
Position N 46°33' E 032°17'.

Length 96 m; draft 2.7 m.

Type: Cargo ship. MMSI: 27202500.

Date/timePositionNaut miles runAvg speedWind from/ knotsBaromVisibWave heightAir tempDewpointWater temp
2017-Dec-08 23:51N 46°33' E 032°17'7 7.5
2017-Dec-08 22:51N 46°32' E 032°07'3 7.4
2017-Dec-08 22:30N 46°32' E 032°03'4 7.2
2017-Dec-08 22:00N 46°33' E 031°58'4 7.2
2017-Dec-08 21:30N 46°34' E 031°53'4 7.5
2017-Dec-08 20:58N 46°35' E 031°47'4 7.6
2017-Dec-08 20:25N 46°36' E 031°41'12 6.9
2017-Dec-08 18:41N 46°35' E 031°24'20 6.9
2017-Dec-08 15:48N 46°32' E 030°55'2 6.3
2017-Dec-08 15:29N 46°31' E 030°52'4 7.4
2017-Dec-08 15:00N 46°30' E 030°47'2 4.3
2017-Dec-08 14:30N 46°30' E 030°44'0 0.0
2017-Dec-08 14:00N 46°30' E 030°44'0 0.0
2017-Dec-08 13:30N 46°30' E 030°44'0 0.0
2017-Dec-08 13:00N 46°30' E 030°44'0 0.0
2017-Dec-08 12:30N 46°30' E 030°44'0 0.0
2017-Dec-08 12:00N 46°30' E 030°44'0 0.0
2017-Dec-08 11:30N 46°30' E 030°44'0 0.0
2017-Dec-08 11:00N 46°30' E 030°44'0 0.0
2017-Dec-08 10:30N 46°30' E 030°44'0 0.0
2017-Dec-08 10:00N 46°30' E 030°44'0 0.0
2017-Dec-08 09:30N 46°30' E 030°44'0 0.0
2017-Dec-08 09:00N 46°30' E 030°44'0 0.0
2017-Dec-08 08:30N 46°30' E 030°44'0 0.0
2017-Dec-08 07:59N 46°30' E 030°44'0 0.0
2017-Dec-08 07:29N 46°30' E 030°44'0 0.0
2017-Dec-08 07:00N 46°30' E 030°44'0 0.0
2017-Dec-08 06:30N 46°30' E 030°44'0 0.0
2017-Dec-08 06:00N 46°30' E 030°44'0 0.0
2017-Dec-08 05:30N 46°30' E 030°44'0 0.0
2017-Dec-08 05:00N 46°30' E 030°44'0 0.0
2017-Dec-08 04:29N 46°30' E 030°44'0 0.0
2017-Dec-08 04:00N 46°30' E 030°44'0 0.0
2017-Dec-08 03:30N 46°30' E 030°44'0 0.0
2017-Dec-08 03:00N 46°30' E 030°44'0 0.0
2017-Dec-08 02:30N 46°30' E 030°44'0 0.0
2017-Dec-08 02:00N 46°30' E 030°44'0 0.0
2017-Dec-08 01:30N 46°30' E 030°44'0 0.0
2017-Dec-08 01:00N 46°30' E 030°44'0 0.0
2017-Dec-08 00:30N 46°30' E 030°44'0 0.0
2017-Dec-08 00:00N 46°30' E 030°44'0 0.0
2017-Dec-07 23:30N 46°30' E 030°44'0 0.0
2017-Dec-07 23:00N 46°30' E 030°44'0 0.0
2017-Dec-07 22:30N 46°30' E 030°44'0 0.0
2017-Dec-07 21:59N 46°30' E 030°44'0 0.0
2017-Dec-07 21:30N 46°30' E 030°44'0 0.0
2017-Dec-07 21:00N 46°30' E 030°44'0 0.0
2017-Dec-07 20:27N 46°30' E 030°44'0 0.0
2017-Dec-07 20:00N 46°30' E 030°44'0 0.0
2017-Dec-07 19:30N 46°30' E 030°44'0 0.0
2017-Dec-07 19:00N 46°30' E 030°44'0 0.0
2017-Dec-07 18:30N 46°30' E 030°44'0 0.0
2017-Dec-07 18:00N 46°30' E 030°44'0 0.0
2017-Dec-07 17:30N 46°30' E 030°44'0 0.0
2017-Dec-07 17:00N 46°30' E 030°44'0 0.0
2017-Dec-07 16:30N 46°30' E 030°44'0 0.0
2017-Dec-07 16:00N 46°30' E 030°44'0 0.0
2017-Dec-07 15:30N 46°30' E 030°44'0 0.0
2017-Dec-07 15:00N 46°30' E 030°44'0 0.0
2017-Dec-07 14:30N 46°30' E 030°44'0 0.0
2017-Dec-07 14:00N 46°30' E 030°44'0 0.0
2017-Dec-07 13:30N 46°30' E 030°44'0 0.0
2017-Dec-07 13:00N 46°30' E 030°44'0 0.0
2017-Dec-07 12:30N 46°30' E 030°44'0 0.0
2017-Dec-07 12:00N 46°30' E 030°44'0 0.0
2017-Dec-07 11:30N 46°30' E 030°44'0 0.0
2017-Dec-07 11:00N 46°30' E 030°44'0 0.0
2017-Dec-07 10:30N 46°30' E 030°44'0 0.0
2017-Dec-07 10:00N 46°30' E 030°44'0 0.0
2017-Dec-07 09:30N 46°30' E 030°44'1 1.6
2017-Dec-07 09:00N 46°30' E 030°46'2 3.9
2017-Dec-07 08:30N 46°30' E 030°48'3 5.8
2017-Dec-07 08:00N 46°31' E 030°52'36 6.3
2017-Dec-07 02:12N 46°36' E 031°45'2 7.1
2017-Dec-07 01:53N 46°35' E 031°48'2 6.3
2017-Dec-07 01:30N 46°35' E 031°52'3 6.1
2017-Dec-07 01:00N 46°34' E 031°56'3 5.9
2017-Dec-07 00:30N 46°33' E 031°60'3 6.2
2017-Dec-06 23:59N 46°32' E 032°04'  
2017-Dec-04 05:13N 46°32' E 032°06'0 0.1
2017-Dec-04 04:56N 46°32' E 032°06'0 0.0
2017-Dec-04 04:24N 46°32' E 032°06'0 0.0
2017-Dec-04 03:58N 46°32' E 032°06'0 0.0
2017-Dec-04 03:29N 46°32' E 032°06'0 0.0
2017-Dec-04 03:00N 46°32' E 032°06'0 0.0
2017-Dec-04 02:19N 46°32' E 032°06'0 0.0
2017-Dec-04 02:00N 46°32' E 032°06'0 0.0
2017-Dec-04 01:28N 46°32' E 032°06'0 0.0
2017-Dec-04 00:59N 46°32' E 032°06'0 0.1
2017-Dec-04 00:30N 46°32' E 032°06'0 0.0
2017-Dec-04 00:00N 46°32' E 032°06'0 0.0
2017-Dec-03 23:30N 46°32' E 032°06'0 0.0
2017-Dec-03 22:58N 46°32' E 032°06'0 0.1
2017-Dec-03 22:15N 46°32' E 032°06'0 0.1
2017-Dec-03 21:59N 46°32' E 032°06'0 0.0
2017-Dec-03 18:54N 46°32' E 032°06'0 0.0
2017-Dec-03 18:24N 46°32' E 032°06'0 0.0
2017-Dec-03 18:00N 46°32' E 032°06'0 0.0
2017-Dec-03 17:30N 46°32' E 032°06'0 0.0
2017-Dec-03 16:57N 46°32' E 032°06'0 0.0
2017-Dec-03 16:30N 46°32' E 032°06'0 0.0
2017-Dec-03 16:00N 46°32' E 032°06'0 0.0
2017-Dec-03 15:30N 46°32' E 032°06'0 0.0
2017-Dec-03 13:50N 46°32' E 032°06'0 0.0
2017-Dec-03 13:17N 46°32' E 032°06'0 0.0
2017-Dec-03 12:44N 46°32' E 032°06'0 0.0
2017-Dec-03 12:26N 46°32' E 032°06'0 0.0
2017-Dec-03 11:56N 46°32' E 032°06'0 0.0
2017-Dec-03 11:26N 46°32' E 032°06'0 0.0
2017-Dec-03 10:41N 46°32' E 032°06'0 0.0
2017-Dec-03 10:17N 46°32' E 032°06'0 0.0
2017-Dec-03 09:32N 46°32' E 032°06'0 0.1
2017-Dec-03 09:29N 46°32' E 032°06'0 0.0
2017-Dec-03 05:02N 46°32' E 032°06'0 0.0
2017-Dec-03 04:59N 46°32' E 032°06'0 0.0
2017-Dec-03 01:56N 46°32' E 032°06'0 0.0
2017-Dec-03 01:08N 46°32' E 032°06'0 0.0
2017-Dec-03 00:56N 46°32' E 032°06'0 0.0
2017-Dec-03 00:20N 46°32' E 032°06'0 0.0
2017-Dec-02 23:56N 46°32' E 032°06'0 0.0
2017-Dec-02 20:23N 46°32' E 032°06'0 0.0
2017-Dec-02 20:00N 46°32' E 032°06'0 0.0
2017-Dec-02 19:27N 46°32' E 032°06'0 0.0
2017-Dec-02 18:56N 46°32' E 032°06'1 1.4
2017-Dec-02 18:18N 46°32' E 032°05'2 6.0
2017-Dec-02 18:00N 46°33' E 032°02'4 7.3
2017-Dec-02 17:30N 46°34' E 031°57'4 7.2
2017-Dec-02 17:00N 46°35' E 031°52'4 7.3
2017-Dec-02 16:30N 46°35' E 031°47'9 7.4
2017-Dec-02 15:21N 46°35' E 031°35'27 6.6
2017-Dec-02 11:19N 46°32' E 030°56'2 6.6
2017-Dec-02 11:00N 46°32' E 030°53'3 6.7
2017-Dec-02 10:30N 46°31' E 030°49'3 5.5
2017-Dec-02 10:00N 46°30' E 030°45'0 0.9
2017-Dec-02 09:30N 46°30' E 030°44'0 0.0
2017-Dec-02 09:00N 46°30' E 030°44'0 0.0
2017-Dec-02 08:30N 46°30' E 030°44'0 0.0
2017-Dec-02 08:00N 46°30' E 030°44'0 0.0
2017-Dec-02 07:30N 46°30' E 030°44'0 0.0
2017-Dec-02 07:00N 46°30' E 030°44'0 0.0
2017-Dec-02 06:30N 46°30' E 030°44'0 0.0
2017-Dec-02 06:00N 46°30' E 030°44'0 0.0
2017-Dec-02 05:30N 46°30' E 030°44'0 0.0
2017-Dec-02 05:00N 46°30' E 030°44'0 0.0
2017-Dec-02 04:30N 46°30' E 030°44'0 0.0
2017-Dec-02 03:56N 46°30' E 030°44'0 0.0
2017-Dec-02 03:11N 46°30' E 030°44'0 0.0
2017-Dec-02 02:59N 46°30' E 030°44'0 0.0
2017-Dec-02 02:29N 46°30' E 030°44'0 0.0
2017-Dec-02 01:59N 46°30' E 030°44'0 0.0
2017-Dec-02 01:20N 46°30' E 030°44'0 0.0
2017-Dec-02 00:56N 46°30' E 030°44'0 0.0
2017-Dec-02 00:23N 46°30' E 030°44'0 0.0
2017-Dec-01 23:53N 46°30' E 030°44'0 0.0
2017-Dec-01 23:23N 46°30' E 030°44'0 0.0
2017-Dec-01 22:53N 46°30' E 030°44'0 0.0
2017-Dec-01 22:14N 46°30' E 030°44'0 0.0
2017-Dec-01 21:56N 46°30' E 030°44'0 0.0
2017-Dec-01 21:29N 46°30' E 030°44'0 0.0
2017-Dec-01 20:59N 46°30' E 030°44'0 0.0
2017-Dec-01 20:17N 46°30' E 030°44'0 0.0
2017-Dec-01 19:53N 46°30' E 030°44'0 0.0
2017-Dec-01 19:26N 46°30' E 030°44'0 0.0
2017-Dec-01 18:56N 46°30' E 030°44'0 0.0
2017-Dec-01 18:26N 46°30' E 030°44'0 0.0
2017-Dec-01 17:56N 46°30' E 030°44'0 0.0
2017-Dec-01 17:20N 46°30' E 030°44'0 0.0
2017-Dec-01 16:59N 46°30' E 030°44'0 0.0
2017-Dec-01 16:29N 46°30' E 030°44'0 0.0
2017-Dec-01 15:53N 46°30' E 030°44'0 0.0
2017-Dec-01 15:20N 46°30' E 030°44'0 0.0
2017-Dec-01 14:59N 46°30' E 030°44'0 0.0
2017-Dec-01 14:26N 46°30' E 030°44'0 0.0
2017-Dec-01 13:59N 46°30' E 030°44'0 0.0
2017-Dec-01 13:17N 46°30' E 030°44'0 0.0
2017-Dec-01 12:59N 46°30' E 030°44'0 0.0
2017-Dec-01 12:29N 46°30' E 030°44'0 0.0
2017-Dec-01 11:59N 46°30' E 030°44'0 0.0
2017-Dec-01 11:29N 46°30' E 030°44'0 0.0
2017-Dec-01 10:59N 46°30' E 030°44'0 0.0
2017-Dec-01 10:26N 46°30' E 030°44'0 0.0
2017-Dec-01 09:47N 46°30' E 030°44'0 0.0
2017-Dec-01 09:29N 46°30' E 030°44'0 0.0
2017-Dec-01 08:59N 46°30' E 030°44'0 0.0
2017-Dec-01 08:29N 46°30' E 030°44'0 0.0
2017-Dec-01 07:56N 46°30' E 030°44'0 0.0
2017-Dec-01 07:29N 46°30' E 030°44'0 0.0
2017-Dec-01 06:53N 46°30' E 030°44'0 0.0
2017-Dec-01 06:29N 46°30' E 030°44'0 0.0
2017-Dec-01 05:53N 46°30' E 030°44'0 0.0
2017-Dec-01 05:17N 46°30' E 030°44'0 0.0
2017-Dec-01 04:59N 46°30' E 030°44'0 0.0
2017-Dec-01 04:14N 46°30' E 030°44'0 0.0
2017-Dec-01 03:50N 46°30' E 030°44'0 0.0
2017-Dec-01 03:26N 46°30' E 030°44'0 0.0
2017-Dec-01 02:59N 46°30' E 030°44'0 0.0
2017-Dec-01 02:29N 46°30' E 030°44'0 0.0
2017-Dec-01 01:59N 46°30' E 030°44'0 0.0
2017-Dec-01 01:26N 46°30' E 030°44'0 0.0
2017-Dec-01 00:59N 46°30' E 030°44'0 0.0
2017-Dec-01 00:29N 46°30' E 030°44'0 0.0
2017-Nov-30 23:56N 46°30' E 030°44'0 0.0
2017-Nov-30 23:20N 46°30' E 030°44'0 0.0
2017-Nov-30 22:56N 46°30' E 030°44'0 0.0
2017-Nov-30 22:29N 46°30' E 030°44'0 0.0
2017-Nov-30 21:49N 46°30' E 030°44'0 0.0
2017-Nov-30 21:28N 46°30' E 030°44'0 0.0
2017-Nov-30 20:58N 46°30' E 030°44'0 0.0
2017-Nov-30 20:28N 46°30' E 030°44'0 0.0
2017-Nov-30 19:52N 46°30' E 030°44'0 0.0
2017-Nov-30 19:10N 46°30' E 030°44'0 0.0
2017-Nov-30 18:58N 46°30' E 030°44'0 0.0
2017-Nov-30 18:19N 46°30' E 030°44'0 0.0
2017-Nov-30 17:55N 46°30' E 030°44'0 0.0
2017-Nov-30 17:28N 46°30' E 030°44'0 0.0
2017-Nov-30 16:49N 46°30' E 030°44'0 0.0
2017-Nov-30 16:28N 46°30' E 030°44'0 0.0
2017-Nov-30 15:40N 46°30' E 030°44'0 0.0
2017-Nov-30 15:22N 46°30' E 030°44'0 0.0
2017-Nov-30 14:58N 46°30' E 030°44'0 0.0
2017-Nov-30 14:25N 46°30' E 030°44'0 0.0
2017-Nov-30 13:58N 46°30' E 030°44'0 0.0
2017-Nov-30 13:25N 46°30' E 030°44'0 0.0
2017-Nov-30 12:55N 46°30' E 030°44'0 0.0
2017-Nov-30 12:28N 46°30' E 030°44'0 0.0
2017-Nov-30 11:58N 46°30' E 030°44'0 0.0
2017-Nov-30 11:25N 46°30' E 030°44'0 0.0
2017-Nov-30 10:52N 46°30' E 030°44'0 0.0
2017-Nov-30 10:07N 46°30' E 030°44'0 0.0
2017-Nov-30 09:58N 46°30' E 030°44'0 0.0
2017-Nov-30 09:28N 46°30' E 030°44'0 0.0
2017-Nov-30 08:58N 46°30' E 030°44'0 0.0
2017-Nov-30 08:25N 46°30' E 030°44'0 0.0
2017-Nov-30 07:55N 46°30' E 030°44'0 0.0
2017-Nov-30 07:25N 46°30' E 030°44'0 0.0
2017-Nov-30 06:55N 46°30' E 030°44'0 0.0
2017-Nov-30 06:25N 46°30' E 030°44'0 0.0
2017-Nov-30 05:58N 46°30' E 030°44'0 0.0
2017-Nov-30 05:28N 46°30' E 030°44'3473661.8
2017-Nov-30 05:22N 43°51' E 023°27'3 6.7
2017-Nov-30 04:58N 43°51' E 023°23'3491257238.2
2017-Nov-30 04:58N 46°30' E 030°44'352749.8
2017-Nov-30 04:30N 43°51' E 023°19'3524369.6
2017-Nov-30 04:25N 46°30' E 030°44'355869.7
2017-Nov-30 04:01N 43°50' E 023°14'3558410.7
2017-Nov-30 03:58N 46°30' E 030°44'357779.2
2017-Nov-30 03:31N 43°50' E 023°12'3571855.6
2017-Nov-30 03:19N 46°30' E 030°44'0 0.0
2017-Nov-30 02:58N 46°30' E 030°44'0 0.0
2017-Nov-30 02:25N 46°30' E 030°44'0 0.0
2017-Nov-30 01:55N 46°30' E 030°44'0 0.0
2017-Nov-30 01:16N 46°30' E 030°44'0 0.0
2017-Nov-30 00:52N 46°30' E 030°44'0 0.0
2017-Nov-30 00:25N 46°30' E 030°44'3571379.1
2017-Nov-30 00:09N 43°50' E 023°12'0 0.0
2017-Nov-30 00:00N 43°50' E 023°12'3578447.3
2017-Nov-29 23:58N 46°30' E 030°44'0 0.0
2017-Nov-29 23:28N 46°30' E 030°44'0 0.0
2017-Nov-29 22:58N 46°30' E 030°44'35745856.6
2017-Nov-29 22:57N 43°50' E 023°12'0 0.0
2017-Nov-29 22:30N 43°50' E 023°12'3578392.1
2017-Nov-29 22:28N 46°30' E 030°44'357702.8
2017-Nov-29 21:57N 43°50' E 023°12'3571850.1
2017-Nov-29 21:46N 46°30' E 030°44'3571386.6
2017-Nov-29 21:30N 43°50' E 023°12'3572498.0
2017-Nov-29 21:22N 46°30' E 030°44'357999.2
2017-Nov-29 21:00N 43°50' E 023°12'3573832.8
2017-Nov-29 20:55N 46°30' E 030°44'357780.5
2017-Nov-29 20:27N 43°50' E 023°12'3573821.4
2017-Nov-29 20:22N 46°30' E 030°44'0 0.0
2017-Nov-29 19:52N 46°30' E 030°44'35755825.0
2017-Nov-29 19:51N 43°50' E 023°12'0 0.0
2017-Nov-29 19:30N 43°50' E 023°12'3573810.0
2017-Nov-29 19:25N 46°30' E 030°44'0 0.0
2017-Nov-29 18:55N 46°30' E 030°44'35753499.4
2017-Nov-29 18:54N 43°50' E 023°12'357655.8
2017-Nov-29 18:22N 46°30' E 030°44'0 0.0
2017-Nov-29 17:58N 46°30' E 030°44'35758364.2
2017-Nov-29 17:57N 43°50' E 023°12'0 0.0
2017-Nov-29 17:30N 43°50' E 023°12'3573938.6
2017-Nov-29 17:25N 46°30' E 030°44'357883.4
2017-Nov-29 17:01N 43°50' E 023°12'3577742.9
2017-Nov-29 16:58N 46°30' E 030°44'361794.8
2017-Nov-29 16:31N 43°48' E 023°07'3613753.5
2017-Nov-29 16:25N 46°30' E 030°44'0 0.0
2017-Nov-29 16:00N 46°30' E 030°44'364100846.4
2017-Nov-29 16:00N 43°48' E 023°01'4 7.6
2017-Nov-29 15:30N 43°49' E 022°56'367220162.3
2017-Nov-29 15:30N 46°30' E 030°44'369745.4
2017-Nov-29 15:01N 43°51' E 022°52'36951149.3
2017-Nov-29 15:00N 46°30' E 030°44'368747.0
2017-Nov-29 14:31N 43°54' E 022°51'369189965.1
2017-Nov-29 14:30N 46°30' E 030°46'367735.8
2017-Nov-29 14:01N 43°58' E 022°53'367188757.0
2017-Nov-29 14:00N 46°31' E 030°46'364729.9
2017-Nov-29 13:31N 44°00' E 022°56'363436194.5
2017-Nov-29 13:30N 46°31' E 030°46'360721.4
2017-Nov-29 13:01N 44°01' E 023°01'36053980.7
2017-Nov-29 13:00N 46°31' E 030°46'358724.4
2017-Nov-29 12:31N 44°05' E 023°02'358643645.3
2017-Nov-29 12:30N 46°31' E 030°46'360721.3
2017-Nov-29 12:01N 44°06' E 022°58'36099702.5
2017-Nov-29 12:00N 46°31' E 030°46'362729.4
2017-Nov-29 11:31N 44°07' E 022°53'36239519.8
2017-Nov-29 11:30N 46°31' E 030°46'364742.3
2017-Nov-29 11:01N 44°09' E 022°49'364655792.1
2017-Nov-29 11:00N 46°31' E 030°46'366732.8
2017-Nov-29 10:31N 44°12' E 022°44'3661317537.4
2017-Nov-29 10:30N 46°31' E 030°46'368736.0
2017-Nov-29 10:01N 44°14' E 022°40'36840124.2
2017-Nov-29 10:00N 46°31' E 030°46'367747.2
2017-Nov-29 09:31N 44°17' E 022°40'367101504.9
2017-Nov-29 09:30N 46°31' E 030°46'369743.5
2017-Nov-29 09:01N 44°18' E 022°36'369664280.9
2017-Nov-29 09:00N 46°31' E 030°46'370740.2
2017-Nov-29 08:31N 44°19' E 022°34'37030248.6
2017-Nov-29 08:30N 46°31' E 030°46'370758.4
2017-Nov-29 08:01N 44°19' E 022°33'37018506.6
2017-Nov-29 07:59N 46°31' E 030°46'371772.9
2017-Nov-29 07:31N 44°20' E 022°32'371333702.3
2017-Nov-29 07:30N 46°31' E 030°46'371742.7
2017-Nov-29 07:01N 44°22' E 022°31'371111228.1
2017-Nov-29 07:00N 46°31' E 030°46'370746.1
2017-Nov-29 06:31N 44°24' E 022°30'370444450.4
2017-Nov-29 06:30N 46°31' E 030°46'0 0.0
2017-Nov-29 06:00N 46°31' E 030°46'371222394.2
2017-Nov-29 06:00N 44°26' E 022°28'371744.2
2017-Nov-29 05:30N 46°31' E 030°46'369166239.7
2017-Nov-29 05:30N 44°29' E 022°29'369741.7
2017-Nov-29 05:00N 46°31' E 030°46'367219950.0
2017-Nov-29 05:00N 44°29' E 022°33'3 6.3
2017-Nov-29 04:30N 44°32' E 022°34'365101029.7
2017-Nov-29 04:30N 46°31' E 030°46'362730.0
2017-Nov-29 04:00N 44°33' E 022°38'36238324.1
2017-Nov-29 04:00N 46°31' E 030°46'0 0.0
2017-Nov-29 03:30N 46°31' E 030°46'3604097.7
2017-Nov-29 03:25N 44°31' E 022°42'3 6.5
2017-Nov-29 03:00N 44°32' E 022°46'35771391.6
2017-Nov-29 03:00N 46°31' E 030°46'0 0.0
2017-Nov-29 02:30N 46°31' E 030°46'3579742.0
2017-Nov-29 02:28N 44°35' E 022°44'3 6.0
2017-Nov-29 02:00N 44°37' E 022°41'35946095.3
2017-Nov-29 02:00N 46°31' E 030°46'0 0.0
2017-Nov-29 01:30N 46°31' E 030°46'361650217.1
2017-Nov-29 01:30N 44°37' E 022°36'3 6.4
2017-Nov-29 01:00N 44°39' E 022°33'36368745.1
2017-Nov-29 01:00N 46°31' E 030°46'0 0.0
2017-Nov-29 00:30N 46°31' E 030°46'363436062.5
2017-Nov-29 00:30N 44°40' E 022°32'363727.2
2017-Nov-29 00:00N 46°31' E 030°46'363654261.6
2017-Nov-29 00:00N 44°40' E 022°31'  
Track history (hours):
 
Tides and Currents Weather Stations Pressure Air Temp Water Temp Dewpoint Dewpoint Depression Visibility Wind Speed Wind Dir Waves Ship Positions

Kiliya

Last reported at 2017-Dec-08 23:51 UTC. Time now 2017-Dec-12 13:57 UTC.
Position N 46°33' E 032°17'.

Length 96 m; draft 2.7 m.

Type: Cargo ship. MMSI: 27202500.

Date/timePositionNaut miles runAvg speedWind from/ knotsBaromVisibWave heightAir tempDewpointWater temp
2017-Dec-08 23:51N 46°33' E 032°17'7 7.5
2017-Dec-08 22:51N 46°32' E 032°07'3 7.4
2017-Dec-08 22:30N 46°32' E 032°03'4 7.2
2017-Dec-08 22:00N 46°33' E 031°58'4 7.2
2017-Dec-08 21:30N 46°34' E 031°53'4 7.5
2017-Dec-08 20:58N 46°35' E 031°47'4 7.6
2017-Dec-08 20:25N 46°36' E 031°41'12 6.9
2017-Dec-08 18:41N 46°35' E 031°24'20 6.9
2017-Dec-08 15:48N 46°32' E 030°55'2 6.3
2017-Dec-08 15:29N 46°31' E 030°52'4 7.4
2017-Dec-08 15:00N 46°30' E 030°47'2 4.3
2017-Dec-08 14:30N 46°30' E 030°44'0 0.0
2017-Dec-08 14:00N 46°30' E 030°44'0 0.0
2017-Dec-08 13:30N 46°30' E 030°44'0 0.0
2017-Dec-08 13:00N 46°30' E 030°44'0 0.0
2017-Dec-08 12:30N 46°30' E 030°44'0 0.0
2017-Dec-08 12:00N 46°30' E 030°44'0 0.0
2017-Dec-08 11:30N 46°30' E 030°44'0 0.0
2017-Dec-08 11:00N 46°30' E 030°44'0 0.0
2017-Dec-08 10:30N 46°30' E 030°44'0 0.0
2017-Dec-08 10:00N 46°30' E 030°44'0 0.0
2017-Dec-08 09:30N 46°30' E 030°44'0 0.0
2017-Dec-08 09:00N 46°30' E 030°44'0 0.0
2017-Dec-08 08:30N 46°30' E 030°44'0 0.0
2017-Dec-08 07:59N 46°30' E 030°44'0 0.0
2017-Dec-08 07:29N 46°30' E 030°44'0 0.0
2017-Dec-08 07:00N 46°30' E 030°44'0 0.0
2017-Dec-08 06:30N 46°30' E 030°44'0 0.0
2017-Dec-08 06:00N 46°30' E 030°44'0 0.0
2017-Dec-08 05:30N 46°30' E 030°44'0 0.0
2017-Dec-08 05:00N 46°30' E 030°44'0 0.0
2017-Dec-08 04:29N 46°30' E 030°44'0 0.0
2017-Dec-08 04:00N 46°30' E 030°44'0 0.0
2017-Dec-08 03:30N 46°30' E 030°44'0 0.0
2017-Dec-08 03:00N 46°30' E 030°44'0 0.0
2017-Dec-08 02:30N 46°30' E 030°44'0 0.0
2017-Dec-08 02:00N 46°30' E 030°44'0 0.0
2017-Dec-08 01:30N 46°30' E 030°44'0 0.0
2017-Dec-08 01:00N 46°30' E 030°44'0 0.0
2017-Dec-08 00:30N 46°30' E 030°44'0 0.0
2017-Dec-08 00:00N 46°30' E 030°44'0 0.0
2017-Dec-07 23:30N 46°30' E 030°44'0 0.0
2017-Dec-07 23:00N 46°30' E 030°44'0 0.0
2017-Dec-07 22:30N 46°30' E 030°44'0 0.0
2017-Dec-07 21:59N 46°30' E 030°44'0 0.0
2017-Dec-07 21:30N 46°30' E 030°44'0 0.0
2017-Dec-07 21:00N 46°30' E 030°44'0 0.0
2017-Dec-07 20:27N 46°30' E 030°44'0 0.0
2017-Dec-07 20:00N 46°30' E 030°44'0 0.0
2017-Dec-07 19:30N 46°30' E 030°44'0 0.0
2017-Dec-07 19:00N 46°30' E 030°44'0 0.0
2017-Dec-07 18:30N 46°30' E 030°44'0 0.0
2017-Dec-07 18:00N 46°30' E 030°44'0 0.0
2017-Dec-07 17:30N 46°30' E 030°44'0 0.0
2017-Dec-07 17:00N 46°30' E 030°44'0 0.0
2017-Dec-07 16:30N 46°30' E 030°44'0 0.0
2017-Dec-07 16:00N 46°30' E 030°44'0 0.0
2017-Dec-07 15:30N 46°30' E 030°44'0 0.0
2017-Dec-07 15:00N 46°30' E 030°44'0 0.0
2017-Dec-07 14:30N 46°30' E 030°44'0 0.0
2017-Dec-07 14:00N 46°30' E 030°44'0 0.0
2017-Dec-07 13:30N 46°30' E 030°44'0 0.0
2017-Dec-07 13:00N 46°30' E 030°44'0 0.0
2017-Dec-07 12:30N 46°30' E 030°44'0 0.0
2017-Dec-07 12:00N 46°30' E 030°44'0 0.0
2017-Dec-07 11:30N 46°30' E 030°44'0 0.0
2017-Dec-07 11:00N 46°30' E 030°44'0 0.0
2017-Dec-07 10:30N 46°30' E 030°44'0 0.0
2017-Dec-07 10:00N 46°30' E 030°44'0 0.0
2017-Dec-07 09:30N 46°30' E 030°44'1 1.6
2017-Dec-07 09:00N 46°30' E 030°46'2 3.9
2017-Dec-07 08:30N 46°30' E 030°48'3 5.8
2017-Dec-07 08:00N 46°31' E 030°52'36 6.3
2017-Dec-07 02:12N 46°36' E 031°45'2 7.1
2017-Dec-07 01:53N 46°35' E 031°48'2 6.3
2017-Dec-07 01:30N 46°35' E 031°52'3 6.1
2017-Dec-07 01:00N 46°34' E 031°56'3 5.9
2017-Dec-07 00:30N 46°33' E 031°60'3 6.2
2017-Dec-06 23:59N 46°32' E 032°04'  
2017-Dec-04 05:13N 46°32' E 032°06'0 0.1
2017-Dec-04 04:56N 46°32' E 032°06'0 0.0
2017-Dec-04 04:24N 46°32' E 032°06'0 0.0
2017-Dec-04 03:58N 46°32' E 032°06'0 0.0
2017-Dec-04 03:29N 46°32' E 032°06'0 0.0
2017-Dec-04 03:00N 46°32' E 032°06'0 0.0
2017-Dec-04 02:19N 46°32' E 032°06'0 0.0
2017-Dec-04 02:00N 46°32' E 032°06'0 0.0
2017-Dec-04 01:28N 46°32' E 032°06'0 0.0
2017-Dec-04 00:59N 46°32' E 032°06'0 0.1
2017-Dec-04 00:30N 46°32' E 032°06'0 0.0
2017-Dec-04 00:00N 46°32' E 032°06'0 0.0
2017-Dec-03 23:30N 46°32' E 032°06'0 0.0
2017-Dec-03 22:58N 46°32' E 032°06'0 0.1
2017-Dec-03 22:15N 46°32' E 032°06'0 0.1
2017-Dec-03 21:59N 46°32' E 032°06'0 0.0
2017-Dec-03 18:54N 46°32' E 032°06'0 0.0
2017-Dec-03 18:24N 46°32' E 032°06'0 0.0
2017-Dec-03 18:00N 46°32' E 032°06'0 0.0
2017-Dec-03 17:30N 46°32' E 032°06'0 0.0
2017-Dec-03 16:57N 46°32' E 032°06'0 0.0
2017-Dec-03 16:30N 46°32' E 032°06'0 0.0
2017-Dec-03 16:00N 46°32' E 032°06'0 0.0
2017-Dec-03 15:30N 46°32' E 032°06'0 0.0
2017-Dec-03 13:50N 46°32' E 032°06'0 0.0
2017-Dec-03 13:17N 46°32' E 032°06'0 0.0
2017-Dec-03 12:44N 46°32' E 032°06'0 0.0
2017-Dec-03 12:26N 46°32' E 032°06'0 0.0
2017-Dec-03 11:56N 46°32' E 032°06'0 0.0
2017-Dec-03 11:26N 46°32' E 032°06'0 0.0
2017-Dec-03 10:41N 46°32' E 032°06'0 0.0
2017-Dec-03 10:17N 46°32' E 032°06'0 0.0
2017-Dec-03 09:32N 46°32' E 032°06'0 0.1
2017-Dec-03 09:29N 46°32' E 032°06'0 0.0
2017-Dec-03 05:02N 46°32' E 032°06'0 0.0
2017-Dec-03 04:59N 46°32' E 032°06'0 0.0
2017-Dec-03 01:56N 46°32' E 032°06'0 0.0
2017-Dec-03 01:08N 46°32' E 032°06'0 0.0
2017-Dec-03 00:56N 46°32' E 032°06'0 0.0
2017-Dec-03 00:20N 46°32' E 032°06'0 0.0
2017-Dec-02 23:56N 46°32' E 032°06'0 0.0
2017-Dec-02 20:23N 46°32' E 032°06'0 0.0
2017-Dec-02 20:00N 46°32' E 032°06'0 0.0
2017-Dec-02 19:27N 46°32' E 032°06'0 0.0
2017-Dec-02 18:56N 46°32' E 032°06'1 1.4
2017-Dec-02 18:18N 46°32' E 032°05'2 6.0
2017-Dec-02 18:00N 46°33' E 032°02'4 7.3
2017-Dec-02 17:30N 46°34' E 031°57'4 7.2
2017-Dec-02 17:00N 46°35' E 031°52'4 7.3
2017-Dec-02 16:30N 46°35' E 031°47'9 7.4
2017-Dec-02 15:21N 46°35' E 031°35'27 6.6
2017-Dec-02 11:19N 46°32' E 030°56'2 6.6
2017-Dec-02 11:00N 46°32' E 030°53'3 6.7
2017-Dec-02 10:30N 46°31' E 030°49'3 5.5
2017-Dec-02 10:00N 46°30' E 030°45'0 0.9
2017-Dec-02 09:30N 46°30' E 030°44'0 0.0
2017-Dec-02 09:00N 46°30' E 030°44'0 0.0
2017-Dec-02 08:30N 46°30' E 030°44'0 0.0
2017-Dec-02 08:00N 46°30' E 030°44'0 0.0
2017-Dec-02 07:30N 46°30' E 030°44'0 0.0
2017-Dec-02 07:00N 46°30' E 030°44'0 0.0
2017-Dec-02 06:30N 46°30' E 030°44'0 0.0
2017-Dec-02 06:00N 46°30' E 030°44'0 0.0
2017-Dec-02 05:30N 46°30' E 030°44'0 0.0
2017-Dec-02 05:00N 46°30' E 030°44'0 0.0
2017-Dec-02 04:30N 46°30' E 030°44'0 0.0
2017-Dec-02 03:56N 46°30' E 030°44'0 0.0
2017-Dec-02 03:11N 46°30' E 030°44'0 0.0
2017-Dec-02 02:59N 46°30' E 030°44'0 0.0
2017-Dec-02 02:29N 46°30' E 030°44'0 0.0
2017-Dec-02 01:59N 46°30' E 030°44'0 0.0
2017-Dec-02 01:20N 46°30' E 030°44'0 0.0
2017-Dec-02 00:56N 46°30' E 030°44'0 0.0
2017-Dec-02 00:23N 46°30' E 030°44'0 0.0
2017-Dec-01 23:53N 46°30' E 030°44'0 0.0
2017-Dec-01 23:23N 46°30' E 030°44'0 0.0
2017-Dec-01 22:53N 46°30' E 030°44'0 0.0
2017-Dec-01 22:14N 46°30' E 030°44'0 0.0
2017-Dec-01 21:56N 46°30' E 030°44'0 0.0
2017-Dec-01 21:29N 46°30' E 030°44'0 0.0
2017-Dec-01 20:59N 46°30' E 030°44'0 0.0
2017-Dec-01 20:17N 46°30' E 030°44'0 0.0
2017-Dec-01 19:53N 46°30' E 030°44'0 0.0
2017-Dec-01 19:26N 46°30' E 030°44'0 0.0
2017-Dec-01 18:56N 46°30' E 030°44'0 0.0
2017-Dec-01 18:26N 46°30' E 030°44'0 0.0
2017-Dec-01 17:56N 46°30' E 030°44'0 0.0
2017-Dec-01 17:20N 46°30' E 030°44'0 0.0
2017-Dec-01 16:59N 46°30' E 030°44'0 0.0
2017-Dec-01 16:29N 46°30' E 030°44'0 0.0
2017-Dec-01 15:53N 46°30' E 030°44'0 0.0
2017-Dec-01 15:20N 46°30' E 030°44'0 0.0
2017-Dec-01 14:59N 46°30' E 030°44'0 0.0
2017-Dec-01 14:26N 46°30' E 030°44'0 0.0
2017-Dec-01 13:59N 46°30' E 030°44'0 0.0
2017-Dec-01 13:17N 46°30' E 030°44'0 0.0
2017-Dec-01 12:59N 46°30' E 030°44'0 0.0
2017-Dec-01 12:29N 46°30' E 030°44'0 0.0
2017-Dec-01 11:59N 46°30' E 030°44'0 0.0
2017-Dec-01 11:29N 46°30' E 030°44'0 0.0
2017-Dec-01 10:59N 46°30' E 030°44'0 0.0
2017-Dec-01 10:26N 46°30' E 030°44'0 0.0
2017-Dec-01 09:47N 46°30' E 030°44'0 0.0
2017-Dec-01 09:29N 46°30' E 030°44'0 0.0
2017-Dec-01 08:59N 46°30' E 030°44'0 0.0
2017-Dec-01 08:29N 46°30' E 030°44'0 0.0
2017-Dec-01 07:56N 46°30' E 030°44'0 0.0
2017-Dec-01 07:29N 46°30' E 030°44'0 0.0
2017-Dec-01 06:53N 46°30' E 030°44'0 0.0
2017-Dec-01 06:29N 46°30' E 030°44'0 0.0
2017-Dec-01 05:53N 46°30' E 030°44'0 0.0
2017-Dec-01 05:17N 46°30' E 030°44'0 0.0
2017-Dec-01 04:59N 46°30' E 030°44'0 0.0
2017-Dec-01 04:14N 46°30' E 030°44'0 0.0
2017-Dec-01 03:50N 46°30' E 030°44'0 0.0
2017-Dec-01 03:26N 46°30' E 030°44'0 0.0
2017-Dec-01 02:59N 46°30' E 030°44'0 0.0
2017-Dec-01 02:29N 46°30' E 030°44'0 0.0
2017-Dec-01 01:59N 46°30' E 030°44'0 0.0
2017-Dec-01 01:26N 46°30' E 030°44'0 0.0
2017-Dec-01 00:59N 46°30' E 030°44'0 0.0
2017-Dec-01 00:29N 46°30' E 030°44'0 0.0
2017-Nov-30 23:56N 46°30' E 030°44'0 0.0
2017-Nov-30 23:20N 46°30' E 030°44'0 0.0
2017-Nov-30 22:56N 46°30' E 030°44'0 0.0
2017-Nov-30 22:29N 46°30' E 030°44'0 0.0
2017-Nov-30 21:49N 46°30' E 030°44'0 0.0
2017-Nov-30 21:28N 46°30' E 030°44'0 0.0
2017-Nov-30 20:58N 46°30' E 030°44'0 0.0
2017-Nov-30 20:28N 46°30' E 030°44'0 0.0
2017-Nov-30 19:52N 46°30' E 030°44'0 0.0
2017-Nov-30 19:10N 46°30' E 030°44'0 0.0
2017-Nov-30 18:58N 46°30' E 030°44'0 0.0
2017-Nov-30 18:19N 46°30' E 030°44'0 0.0
2017-Nov-30 17:55N 46°30' E 030°44'0 0.0
2017-Nov-30 17:28N 46°30' E 030°44'0 0.0
2017-Nov-30 16:49N 46°30' E 030°44'0 0.0
2017-Nov-30 16:28N 46°30' E 030°44'0 0.0
2017-Nov-30 15:40N 46°30' E 030°44'0 0.0
2017-Nov-30 15:22N 46°30' E 030°44'0 0.0
2017-Nov-30 14:58N 46°30' E 030°44'0 0.0
2017-Nov-30 14:25N 46°30' E 030°44'0 0.0
2017-Nov-30 13:58N 46°30' E 030°44'0 0.0
2017-Nov-30 13:25N 46°30' E 030°44'0 0.0
2017-Nov-30 12:55N 46°30' E 030°44'0 0.0
2017-Nov-30 12:28N 46°30' E 030°44'0 0.0
2017-Nov-30 11:58N 46°30' E 030°44'0 0.0
2017-Nov-30 11:25N 46°30' E 030°44'0 0.0
2017-Nov-30 10:52N 46°30' E 030°44'0 0.0
2017-Nov-30 10:07N 46°30' E 030°44'0 0.0
2017-Nov-30 09:58N 46°30' E 030°44'0 0.0
2017-Nov-30 09:28N 46°30' E 030°44'0 0.0
2017-Nov-30 08:58N 46°30' E 030°44'0 0.0
2017-Nov-30 08:25N 46°30' E 030°44'0 0.0
2017-Nov-30 07:55N 46°30' E 030°44'0 0.0
2017-Nov-30 07:25N 46°30' E 030°44'0 0.0
2017-Nov-30 06:55N 46°30' E 030°44'0 0.0
2017-Nov-30 06:25N 46°30' E 030°44'0 0.0
2017-Nov-30 05:58N 46°30' E 030°44'0 0.0
2017-Nov-30 05:28N 46°30' E 030°44'3473661.8
2017-Nov-30 05:22N 43°51' E 023°27'3 6.7
2017-Nov-30 04:58N 43°51' E 023°23'3491257238.2
2017-Nov-30 04:58N 46°30' E 030°44'352749.8
2017-Nov-30 04:30N 43°51' E 023°19'3524369.6
2017-Nov-30 04:25N 46°30' E 030°44'355869.7
2017-Nov-30 04:01N 43°50' E 023°14'3558410.7
2017-Nov-30 03:58N 46°30' E 030°44'357779.2
2017-Nov-30 03:31N 43°50' E 023°12'3571855.6
2017-Nov-30 03:19N 46°30' E 030°44'0 0.0
2017-Nov-30 02:58N 46°30' E 030°44'0 0.0
2017-Nov-30 02:25N 46°30' E 030°44'0 0.0
2017-Nov-30 01:55N 46°30' E 030°44'0 0.0
2017-Nov-30 01:16N 46°30' E 030°44'0 0.0
2017-Nov-30 00:52N 46°30' E 030°44'0 0.0
2017-Nov-30 00:25N 46°30' E 030°44'3571379.1
2017-Nov-30 00:09N 43°50' E 023°12'0 0.0
2017-Nov-30 00:00N 43°50' E 023°12'3578447.3
2017-Nov-29 23:58N 46°30' E 030°44'0 0.0
2017-Nov-29 23:28N 46°30' E 030°44'0 0.0
2017-Nov-29 22:58N 46°30' E 030°44'35745856.6
2017-Nov-29 22:57N 43°50' E 023°12'0 0.0
2017-Nov-29 22:30N 43°50' E 023°12'3578392.1
2017-Nov-29 22:28N 46°30' E 030°44'357702.8
2017-Nov-29 21:57N 43°50' E 023°12'3571850.1
2017-Nov-29 21:46N 46°30' E 030°44'3571386.6
2017-Nov-29 21:30N 43°50' E 023°12'3572498.0
2017-Nov-29 21:22N 46°30' E 030°44'357999.2
2017-Nov-29 21:00N 43°50' E 023°12'3573832.8
2017-Nov-29 20:55N 46°30' E 030°44'357780.5
2017-Nov-29 20:27N 43°50' E 023°12'3573821.4
2017-Nov-29 20:22N 46°30' E 030°44'0 0.0
2017-Nov-29 19:52N 46°30' E 030°44'35755825.0
2017-Nov-29 19:51N 43°50' E 023°12'0 0.0
2017-Nov-29 19:30N 43°50' E 023°12'3573810.0
2017-Nov-29 19:25N 46°30' E 030°44'0 0.0
2017-Nov-29 18:55N 46°30' E 030°44'35753499.4
2017-Nov-29 18:54N 43°50' E 023°12'357655.8
2017-Nov-29 18:22N 46°30' E 030°44'0 0.0
2017-Nov-29 17:58N 46°30' E 030°44'35758364.2
2017-Nov-29 17:57N 43°50' E 023°12'0 0.0
2017-Nov-29 17:30N 43°50' E 023°12'3573938.6
2017-Nov-29 17:25N 46°30' E 030°44'357883.4
2017-Nov-29 17:01N 43°50' E 023°12'3577742.9
2017-Nov-29 16:58N 46°30' E 030°44'361794.8
2017-Nov-29 16:31N 43°48' E 023°07'3613753.5
2017-Nov-29 16:25N 46°30' E 030°44'0 0.0
2017-Nov-29 16:00N 46°30' E 030°44'364100846.4
2017-Nov-29 16:00N 43°48' E 023°01'4 7.6
2017-Nov-29 15:30N 43°49' E 022°56'367220162.3
2017-Nov-29 15:30N 46°30' E 030°44'369745.4
2017-Nov-29 15:01N 43°51' E 022°52'36951149.3
2017-Nov-29 15:00N 46°30' E 030°44'368747.0
2017-Nov-29 14:31N 43°54' E 022°51'369189965.1
2017-Nov-29 14:30N 46°30' E 030°46'367735.8
2017-Nov-29 14:01N 43°58' E 022°53'367188757.0
2017-Nov-29 14:00N 46°31' E 030°46'364729.9
2017-Nov-29 13:31N 44°00' E 022°56'363436194.5
2017-Nov-29 13:30N 46°31' E 030°46'360721.4
2017-Nov-29 13:01N 44°01' E 023°01'36053980.7
2017-Nov-29 13:00N 46°31' E 030°46'358724.4
2017-Nov-29 12:31N 44°05' E 023°02'358643645.3
2017-Nov-29 12:30N 46°31' E 030°46'360721.3
2017-Nov-29 12:01N 44°06' E 022°58'36099702.5
2017-Nov-29 12:00N 46°31' E 030°46'362729.4
2017-Nov-29 11:31N 44°07' E 022°53'36239519.8
2017-Nov-29 11:30N 46°31' E 030°46'364742.3
2017-Nov-29 11:01N 44°09' E 022°49'364655792.1
2017-Nov-29 11:00N 46°31' E 030°46'366732.8
2017-Nov-29 10:31N 44°12' E 022°44'3661317537.4
2017-Nov-29 10:30N 46°31' E 030°46'368736.0
2017-Nov-29 10:01N 44°14' E 022°40'36840124.2
2017-Nov-29 10:00N 46°31' E 030°46'367747.2
2017-Nov-29 09:31N 44°17' E 022°40'367101504.9
2017-Nov-29 09:30N 46°31' E 030°46'369743.5
2017-Nov-29 09:01N 44°18' E 022°36'369664280.9
2017-Nov-29 09:00N 46°31' E 030°46'370740.2
2017-Nov-29 08:31N 44°19' E 022°34'37030248.6
2017-Nov-29 08:30N 46°31' E 030°46'370758.4
2017-Nov-29 08:01N 44°19' E 022°33'37018506.6
2017-Nov-29 07:59N 46°31' E 030°46'371772.9
2017-Nov-29 07:31N 44°20' E 022°32'371333702.3
2017-Nov-29 07:30N 46°31' E 030°46'371742.7
2017-Nov-29 07:01N 44°22' E 022°31'371111228.1
2017-Nov-29 07:00N 46°31' E 030°46'370746.1
2017-Nov-29 06:31N 44°24' E 022°30'370444450.4
2017-Nov-29 06:30N 46°31' E 030°46'0 0.0
2017-Nov-29 06:00N 46°31' E 030°46'371222394.2
2017-Nov-29 06:00N 44°26' E 022°28'371744.2
2017-Nov-29 05:30N 46°31' E 030°46'369166239.7
2017-Nov-29 05:30N 44°29' E 022°29'369741.7
2017-Nov-29 05:00N 46°31' E 030°46'367219950.0
2017-Nov-29 05:00N 44°29' E 022°33'3 6.3
2017-Nov-29 04:30N 44°32' E 022°34'365101029.7
2017-Nov-29 04:30N 46°31' E 030°46'362730.0
2017-Nov-29 04:00N 44°33' E 022°38'36238324.1
2017-Nov-29 04:00N 46°31' E 030°46'0 0.0
2017-Nov-29 03:30N 46°31' E 030°46'3604097.7
2017-Nov-29 03:25N 44°31' E 022°42'3 6.5
2017-Nov-29 03:00N 44°32' E 022°46'35771391.6
2017-Nov-29 03:00N 46°31' E 030°46'0 0.0
2017-Nov-29 02:30N 46°31' E 030°46'3579742.0
2017-Nov-29 02:28N 44°35' E 022°44'3 6.0
2017-Nov-29 02:00N 44°37' E 022°41'35946095.3
2017-Nov-29 02:00N 46°31' E 030°46'0 0.0
2017-Nov-29 01:30N 46°31' E 030°46'361650217.1
2017-Nov-29 01:30N 44°37' E 022°36'3 6.4
2017-Nov-29 01:00N 44°39' E 022°33'36368745.1
2017-Nov-29 01:00N 46°31' E 030°46'0 0.0
2017-Nov-29 00:30N 46°31' E 030°46'363436062.5
2017-Nov-29 00:30N 44°40' E 022°32'363727.2
2017-Nov-29 00:00N 46°31' E 030°46'363654261.6
2017-Nov-29 00:00N 44°40' E 022°31'  

Dump ship's entire track history